This is the latest recevied weather packets stored in our database for station/object K6GMW. If no packets are shown the sender has not sent any weather packets the latest 10 day(s).
| Time | Temp. | Humidity | Pressure | Rain* | Wind** | Luminosity | Snow |
|---|---|---|---|---|---|---|---|
| 1777867493 | 15.56° C | 78% | 1017.9 hPa | 0 mm | - | 0 W/m² | - |
| 1777867188 | 15.56° C | 78% | 1017.9 hPa | 0 mm | - | 0 W/m² | - |
| 1777866886 | 16.11° C | 76% | 1017.7 hPa | 0 mm | - | 0 W/m² | - |
| 1777866582 | 16.11° C | 77% | 1017.9 hPa | 0 mm | - | 0 W/m² | - |
| 1777866280 | 15.56° C | 78% | 1018.1 hPa | 0 mm | - | 0 W/m² | - |
| 1777865977 | 15.56° C | 80% | 1018.1 hPa | 0 mm | - | 0 W/m² | - |
| 1777865675 | 15° C | 79% | 1018 hPa | 0 mm | - | 0 W/m² | - |
| 1777865372 | 15° C | 81% | 1017.8 hPa | 0 mm | - | 0 W/m² | - |
| 1777865069 | 15.56° C | 81% | 1018.1 hPa | 0 mm | - | 0 W/m² | - |
| 1777864765 | 15.56° C | 81% | 1018.1 hPa | 0 mm | - | 0 W/m² | - |
| 1777864462 | 16.11° C | 78% | 1018 hPa | 0 mm | - | 0 W/m² | - |
| 1777864159 | 16.11° C | 79% | 1018 hPa | 0 mm | - | 0 W/m² | - |
| 1777863856 | 16.11° C | 76% | 1018.1 hPa | 0 mm | - | 0 W/m² | - |
| 1777863552 | 17.22° C | 73% | 1018.2 hPa | 0 mm | - | 0 W/m² | - |
| 1777863249 | 17.78° C | 68% | 1018.1 hPa | 0 mm | - | 0 W/m² | - |
| 1777862946 | 17.78° C | 67% | 1017.9 hPa | 0 mm | - | 0 W/m² | - |
| 1777862643 | 17.22° C | 70% | 1018.1 hPa | 0 mm | - | 0 W/m² | - |
| 1777862340 | 16.67° C | 74% | 1018 hPa | 0 mm | - | 0 W/m² | - |
| 1777862036 | 16.67° C | 74% | 1018 hPa | 0 mm | - | 0 W/m² | - |
| 1777861731 | 17.22° C | 74% | 1017.8 hPa | 0 mm | - | 0 W/m² | - |
| 1777861429 | 17.22° C | 70% | 1017.8 hPa | 0 mm | - | 0 W/m² | - |
| 1777861125 | 18.33° C | 70% | 1017.8 hPa | 0 mm | - | 0 W/m² | - |
| 1777860822 | 19.44° C | 62% | 1017.8 hPa | 0 mm | - | 0 W/m² | - |
| 1777860520 | 19.44° C | 60% | 1017.6 hPa | 0 mm | - | 0 W/m² | - |
| 1777860216 | 18.89° C | 63% | 1017.8 hPa | 0 mm | - | 0 W/m² | - |
* Rain latest hour (hover to see other rain measurements)
** Current wind speed in m/s (hover to see current wind gust speed)